createdAt,value
2023-04-15T00:01:01.302Z,100937.69
2023-04-15T00:03:28.717Z,100941.00
2023-04-15T00:05:55.374Z,100942.06
2023-04-15T00:08:21.932Z,100943.84
2023-04-15T00:10:50.987Z,100943.84
2023-04-15T00:13:17.534Z,100943.00
2023-04-15T00:15:44.726Z,100943.94
2023-04-15T00:18:11.270Z,100944.00
2023-04-15T00:20:37.854Z,100946.00
2023-04-15T00:23:04.545Z,100937.41
2023-04-15T00:25:31.501Z,100938.22
2023-04-15T00:27:58.187Z,100944.28
2023-04-15T00:30:25.627Z,100934.56
2023-04-15T00:32:52.658Z,100940.63
2023-04-15T00:35:19.475Z,100943.25
2023-04-15T00:37:46.410Z,100942.31
2023-04-15T00:40:13.739Z,100936.41
2023-04-15T00:42:40.643Z,100944.28
2023-04-15T00:45:08.725Z,100944.41
2023-04-15T00:47:37.201Z,100942.88
2023-04-15T00:50:03.962Z,100949.09
2023-04-15T00:52:31.013Z,100955.16
2023-04-15T00:54:57.604Z,100951.13
2023-04-15T00:57:24.203Z,100953.13
2023-04-15T00:59:52.617Z,100958.56
2023-04-15T01:02:19.968Z,100955.59
2023-04-15T01:04:47.082Z,100959.34
2023-04-15T01:07:13.587Z,100955.88
2023-04-15T01:09:40.734Z,100956.25
2023-04-15T01:12:08.530Z,100951.97
2023-04-15T01:14:35.189Z,100949.72
2023-04-15T01:17:02.240Z,100952.47
2023-04-15T01:19:28.872Z,100958.56
2023-04-15T01:21:56.320Z,100955.19
2023-04-15T01:24:23.996Z,100955.25
2023-04-15T01:26:50.738Z,100958.00
2023-04-15T01:29:18.057Z,100951.25
2023-04-15T01:31:55.931Z,100950.47
2023-04-15T01:34:23.283Z,100954.69
2023-04-15T01:36:49.929Z,100955.66
2023-04-15T01:39:16.436Z,100951.19
2023-04-15T01:41:42.890Z,100961.50
2023-04-15T01:44:09.483Z,100953.00
2023-04-15T01:46:37.190Z,100956.59
2023-04-15T01:49:06.620Z,100961.03
2023-04-15T01:51:33.149Z,100955.97
2023-04-15T01:54:00.136Z,100957.72
2023-04-15T01:56:26.879Z,100949.97
2023-04-15T01:58:53.640Z,100956.97
2023-04-15T02:01:20.816Z,100955.38
2023-04-15T02:03:48.484Z,100955.19
2023-04-15T02:06:15.874Z,100954.13
2023-04-15T02:08:42.433Z,100955.81
2023-04-15T02:11:09.304Z,100963.63
2023-04-15T02:13:36.372Z,100958.44
2023-04-15T02:16:03.394Z,100963.63
2023-04-15T02:18:29.858Z,100963.06
2023-04-15T02:20:58.317Z,100961.47
2023-04-15T02:23:24.746Z,100970.28
2023-04-15T02:25:53.859Z,100973.91
2023-04-15T02:28:21.641Z,100978.59
2023-04-15T02:30:52.524Z,100980.38
2023-04-15T02:33:19.372Z,100981.47
2023-04-15T02:35:45.867Z,100980.88
2023-04-15T02:38:12.491Z,100982.78
2023-04-15T02:40:38.997Z,100990.69
2023-04-15T02:43:07.013Z,100996.75
2023-04-15T02:45:33.629Z,101002.03
2023-04-15T02:48:03.556Z,100995.06
2023-04-15T02:50:31.567Z,100998.63
2023-04-15T02:52:58.000Z,100997.19
2023-04-15T02:55:24.370Z,100999.16
2023-04-15T02:57:50.972Z,101000.03
2023-04-15T03:00:17.510Z,101007.97
2023-04-15T03:02:46.764Z,101013.25
2023-04-15T03:05:14.561Z,101007.97
2023-04-15T03:07:41.020Z,101009.78
2023-04-15T03:10:08.605Z,101007.97
2023-04-15T03:12:35.004Z,101013.97
2023-04-15T03:15:02.152Z,101011.22
2023-04-15T03:17:28.679Z,101017.16
2023-04-15T03:19:55.410Z,101012.78
2023-04-15T03:22:22.620Z,101020.78
2023-04-15T03:24:49.018Z,101019.16
2023-04-15T03:27:15.444Z,101012.38
2023-04-15T03:29:41.852Z,101015.94
2023-04-15T03:32:08.392Z,101016.78
2023-04-15T03:34:34.795Z,101021.13
2023-04-15T03:37:01.408Z,101021.31
2023-04-15T03:39:27.765Z,101025.59
2023-04-15T03:41:54.166Z,101018.00
2023-04-15T03:44:20.820Z,101030.44
2023-04-15T03:46:47.368Z,101037.72
2023-04-15T03:49:14.227Z,101038.06
2023-04-15T03:51:40.702Z,101045.13
2023-04-15T03:54:07.084Z,101044.41
2023-04-15T03:56:33.445Z,101049.63
2023-04-15T03:59:00.147Z,101049.63
2023-04-15T04:01:26.830Z,101052.34
2023-04-15T04:03:53.838Z,101057.72
2023-04-15T04:06:20.579Z,101051.81
2023-04-15T04:08:47.324Z,101061.47
2023-04-15T04:11:13.794Z,101061.59
2023-04-15T04:13:40.601Z,101073.66
2023-04-15T04:16:07.151Z,101065.84
2023-04-15T04:18:34.212Z,101069.56
2023-04-15T04:21:01.203Z,101066.16
2023-04-15T04:23:27.749Z,101073.28
2023-04-15T04:25:54.366Z,101082.06
2023-04-15T04:28:20.865Z,101079.66
2023-04-15T04:30:47.311Z,101087.66
2023-04-15T04:33:13.745Z,101087.72
2023-04-15T04:35:40.319Z,101098.94
2023-04-15T04:38:06.848Z,101096.28
2023-04-15T04:40:33.331Z,101098.00
2023-04-15T04:43:00.161Z,101096.28
2023-04-15T04:45:27.185Z,101113.81
2023-04-15T04:47:53.729Z,101105.28
2023-04-15T04:50:20.428Z,101125.28
2023-04-15T04:52:46.999Z,101130.47
2023-04-15T04:55:13.558Z,101131.41
2023-04-15T04:57:40.072Z,101134.94
2023-04-15T05:00:08.982Z,101135.84
2023-04-15T05:02:36.064Z,101140.22
2023-04-15T05:05:02.674Z,101141.91
2023-04-15T05:07:29.182Z,101148.72
2023-04-15T05:09:55.890Z,101151.97
2023-04-15T05:12:22.661Z,101155.28
2023-04-15T05:14:49.281Z,101155.16
2023-04-15T05:17:15.827Z,101154.94
2023-04-15T05:19:42.369Z,101167.78
2023-04-15T05:22:09.022Z,101171.09
2023-04-15T05:24:36.379Z,101163.13
2023-04-15T05:27:02.961Z,101166.34
2023-04-15T05:29:29.565Z,101168.72
2023-04-15T05:31:56.666Z,101177.88
2023-04-15T05:34:23.226Z,101176.59
2023-04-15T05:36:49.812Z,101183.75
2023-04-15T05:39:16.546Z,101184.16
2023-04-15T05:41:42.962Z,101188.47
2023-04-15T05:44:09.415Z,101189.50
2023-04-15T05:46:36.382Z,101190.19
2023-04-15T05:49:03.274Z,101200.69
2023-04-15T05:51:29.991Z,101199.16
2023-04-15T05:53:56.710Z,101205.69
2023-04-15T05:56:23.197Z,101215.34
2023-04-15T05:58:50.590Z,101221.19
2023-04-15T06:01:18.473Z,101217.25
2023-04-15T06:03:45.018Z,101214.78
2023-04-15T06:06:11.797Z,101225.16
2023-04-15T06:08:38.520Z,101227.94
2023-04-15T06:11:05.870Z,101238.03
2023-04-15T06:13:32.372Z,101238.56
2023-04-15T06:16:00.030Z,101240.59
2023-04-15T06:18:26.644Z,101242.03
2023-04-15T06:20:53.217Z,101244.41
2023-04-15T06:23:19.756Z,101244.34
2023-04-15T06:25:46.643Z,101253.41
2023-04-15T06:28:13.235Z,101255.28
2023-04-15T06:30:40.015Z,101258.47
2023-04-15T06:33:07.390Z,101258.53
2023-04-15T06:35:33.925Z,101257.06
2023-04-15T06:38:00.367Z,101265.53
2023-04-15T06:40:26.918Z,101272.63
2023-04-15T06:42:53.406Z,101268.41
2023-04-15T06:45:20.144Z,101289.06
2023-04-15T06:47:46.930Z,101286.94
2023-04-15T06:50:13.493Z,101288.97
2023-04-15T06:52:40.865Z,101295.81
2023-04-15T06:55:07.968Z,101296.91
2023-04-15T06:57:35.193Z,101303.31
2023-04-15T07:00:02.218Z,101307.56
2023-04-15T07:02:28.775Z,101312.56
2023-04-15T07:04:55.542Z,101314.97
2023-04-15T07:07:22.259Z,101320.56
2023-04-15T07:09:48.728Z,101318.88
2023-04-15T07:12:15.526Z,101322.25
2023-04-15T07:14:42.168Z,101329.69
2023-04-15T07:17:09.606Z,101333.75
2023-04-15T07:19:37.746Z,101336.06
2023-04-15T07:22:04.198Z,101344.97
2023-04-15T07:24:31.165Z,101349.88
2023-04-15T07:27:00.333Z,101350.56
2023-04-15T07:29:27.473Z,101354.56
2023-04-15T07:31:53.898Z,101355.81
2023-04-15T07:34:20.908Z,101353.63
2023-04-15T07:36:50.698Z,101357.41
2023-04-15T07:39:18.732Z,101358.22
2023-04-15T07:41:45.483Z,101358.25
2023-04-15T07:44:12.137Z,101364.34
2023-04-15T07:46:39.115Z,101362.28
2023-04-15T07:49:05.733Z,101369.13
2023-04-15T07:51:32.613Z,101372.63
2023-04-15T07:53:59.265Z,101375.03
2023-04-15T07:56:26.503Z,101369.81
2023-04-15T07:58:53.312Z,101382.53
2023-04-15T08:01:20.830Z,101375.63
2023-04-15T08:03:48.584Z,101386.63
2023-04-15T08:06:15.157Z,101384.66
2023-04-15T08:08:41.639Z,101393.63
2023-04-15T08:11:08.978Z,101388.78
2023-04-15T08:13:35.549Z,101394.25
2023-04-15T08:16:17.766Z,101401.53
2023-04-15T08:18:44.607Z,101396.22
2023-04-15T08:21:11.530Z,101405.44
2023-04-15T08:23:38.559Z,101400.53
2023-04-15T08:26:05.461Z,101405.72
2023-04-15T08:28:32.089Z,101412.56
2023-04-15T08:30:58.744Z,101408.69
2023-04-15T08:33:25.660Z,101416.22
2023-04-15T08:35:52.171Z,101420.50
2023-04-15T08:38:19.482Z,101416.06
2023-04-15T08:40:46.901Z,101417.56
2023-04-15T08:43:21.302Z,101422.56
2023-04-15T08:45:49.661Z,101434.56
2023-04-15T08:48:17.186Z,101439.94
2023-04-15T08:50:43.904Z,101440.34
2023-04-15T08:53:11.808Z,101445.41
2023-04-15T08:55:45.055Z,101453.34
2023-04-15T08:58:13.531Z,101454.59
2023-04-15T09:00:40.684Z,101466.31
2023-04-15T09:03:08.927Z,101460.50
2023-04-15T09:05:36.541Z,101460.78
2023-04-15T09:08:04.134Z,101468.22
2023-04-15T09:10:30.922Z,101465.03
2023-04-15T09:12:57.889Z,101474.66
2023-04-15T09:15:29.497Z,101474.44
2023-04-15T09:17:56.990Z,101477.16
2023-04-15T09:20:24.134Z,101476.22
2023-04-15T09:22:51.954Z,101488.72
2023-04-15T09:25:24.887Z,101481.03
2023-04-15T09:27:53.427Z,101495.22
2023-04-15T09:30:20.559Z,101501.72
2023-04-15T09:32:55.208Z,101510.03
2023-04-15T09:35:23.266Z,101501.06
2023-04-15T09:37:50.461Z,101500.63
2023-04-15T09:40:36.444Z,101500.78
2023-04-15T09:43:05.247Z,101510.28
2023-04-15T09:45:33.332Z,101508.75
2023-04-15T09:48:14.943Z,101499.97
2023-04-15T09:50:43.915Z,101506.56
2023-04-15T09:53:12.415Z,101509.41
2023-04-15T09:55:38.889Z,101500.38
2023-04-15T09:58:33.416Z,101505.84
2023-04-15T10:01:01.793Z,101508.00
2023-04-15T10:03:31.633Z,101511.03
2023-04-15T10:06:00.660Z,101524.97
2023-04-15T10:08:28.938Z,101523.84
2023-04-15T10:10:56.129Z,101521.88
2023-04-15T10:13:28.660Z,101528.50
2023-04-15T10:16:06.401Z,101527.97
2023-04-15T10:18:36.186Z,101530.59
2023-04-15T10:21:02.628Z,101534.03
2023-04-15T10:23:29.344Z,101521.38
2023-04-15T10:25:57.481Z,101532.63
2023-04-15T10:28:24.846Z,101530.34
2023-04-15T10:30:52.533Z,101531.47
2023-04-15T10:33:24.434Z,101531.94
2023-04-15T10:35:52.904Z,101531.28
2023-04-15T10:38:34.421Z,101535.16
2023-04-15T10:41:23.371Z,101543.41
2023-04-15T10:43:51.597Z,101545.81
2023-04-15T10:46:37.807Z,101537.94
2023-04-15T10:49:07.705Z,101543.03
2023-04-15T10:51:37.353Z,101552.56
2023-04-15T10:54:10.413Z,101554.88
2023-04-15T10:56:36.856Z,101559.00
2023-04-15T10:59:05.271Z,101550.72
2023-04-15T11:01:56.384Z,101568.91
2023-04-15T11:04:52.389Z,101575.00
2023-04-15T11:07:47.104Z,101565.50
2023-04-15T11:10:13.667Z,101556.69
2023-04-15T11:12:41.862Z,101565.28
2023-04-15T11:15:31.162Z,101573.88
2023-04-15T11:17:58.881Z,101572.69
2023-04-15T11:20:25.944Z,101568.19
2023-04-15T11:23:08.286Z,101574.53
2023-04-15T11:25:41.762Z,101569.50
2023-04-15T11:28:08.359Z,101576.84
2023-04-15T11:30:37.571Z,101566.31
2023-04-15T11:33:09.334Z,101581.59
2023-04-15T11:35:36.377Z,101568.94
2023-04-15T11:38:09.073Z,101573.63
2023-04-15T11:40:36.207Z,101572.31
2023-04-15T11:43:09.780Z,101579.41
2023-04-15T11:45:37.911Z,101585.53
2023-04-15T11:48:11.791Z,101583.72
2023-04-15T11:50:41.078Z,101576.72
2023-04-15T11:53:09.978Z,101590.34
2023-04-15T11:55:46.218Z,101588.25
2023-04-15T11:58:23.485Z,101588.78
2023-04-15T12:00:54.967Z,101587.84
2023-04-15T12:03:26.010Z,101600.66
2023-04-15T12:06:24.422Z,101604.22
2023-04-15T12:09:04.776Z,101599.69
2023-04-15T12:11:48.293Z,101611.38
2023-04-15T12:14:31.993Z,101609.44
2023-04-15T12:17:01.408Z,101617.81
2023-04-15T12:19:29.350Z,101615.84
2023-04-15T12:22:01.335Z,101621.84
2023-04-15T12:24:30.965Z,101621.69
2023-04-15T12:27:01.937Z,101630.13
2023-04-15T12:29:30.290Z,101631.34
2023-04-15T12:32:13.946Z,101634.53
2023-04-15T12:34:49.538Z,101634.81
2023-04-15T12:37:16.429Z,101642.97
2023-04-15T12:39:44.575Z,101643.66
2023-04-15T12:42:11.634Z,101650.41
2023-04-15T12:44:39.553Z,101654.41
2023-04-15T12:47:08.018Z,101645.88
2023-04-15T12:49:35.097Z,101672.16
2023-04-15T12:52:02.659Z,101653.94
2023-04-15T12:54:30.286Z,101661.19
2023-04-15T12:56:57.593Z,101672.38
2023-04-15T12:59:24.566Z,101674.97
2023-04-15T13:01:52.626Z,101680.09
2023-04-15T13:04:21.264Z,101681.72
2023-04-15T13:06:48.982Z,101667.19
2023-04-15T13:09:15.829Z,101682.66
2023-04-15T13:11:42.813Z,101687.38
2023-04-15T13:14:13.117Z,101694.16
2023-04-15T13:16:40.890Z,101699.69
2023-04-15T13:19:07.619Z,101700.50
2023-04-15T13:21:35.998Z,101693.72
2023-04-15T13:24:03.706Z,101713.88
2023-04-15T13:26:31.276Z,101706.63
2023-04-15T13:28:58.944Z,101716.91
2023-04-15T13:31:25.553Z,101722.78
2023-04-15T13:33:52.734Z,101722.94
2023-04-15T13:36:19.515Z,101734.09
2023-04-15T13:38:46.498Z,101720.22
2023-04-15T13:41:14.024Z,101723.94
2023-04-15T13:43:40.704Z,101738.84
2023-04-15T13:46:07.356Z,101731.38
2023-04-15T13:48:33.911Z,101741.88
2023-04-15T13:51:00.405Z,101744.69
2023-04-15T13:53:37.690Z,101757.81
2023-04-15T13:56:09.333Z,101758.06
2023-04-15T13:58:37.466Z,101750.78
2023-04-15T14:01:06.180Z,101760.19
2023-04-15T14:03:36.837Z,101753.91
2023-04-15T14:06:04.375Z,101741.72
2023-04-15T14:08:31.731Z,101755.44
2023-04-15T14:10:58.434Z,101761.84
2023-04-15T14:13:25.212Z,101763.78
2023-04-15T14:15:51.746Z,101769.81
2023-04-15T14:18:18.185Z,101778.91
2023-04-15T14:20:44.725Z,101785.59
2023-04-15T14:23:12.027Z,101779.81
2023-04-15T14:25:39.435Z,101784.03
2023-04-15T14:28:06.021Z,101794.16
2023-04-15T14:30:32.633Z,101803.56
2023-04-15T14:32:59.111Z,101809.94
2023-04-15T14:35:26.789Z,101806.31
2023-04-15T14:37:54.350Z,101813.69
2023-04-15T14:40:20.879Z,101816.66
2023-04-15T14:42:47.430Z,101807.94
2023-04-15T14:45:13.953Z,101818.03
2023-04-15T14:47:40.805Z,101815.41
2023-04-15T14:50:07.796Z,101814.88
2023-04-15T14:52:38.692Z,101828.28
2023-04-15T14:55:12.733Z,101826.22
2023-04-15T14:57:41.379Z,101835.63
2023-04-15T15:00:09.937Z,101839.44
2023-04-15T15:02:39.906Z,101851.84
2023-04-15T15:05:08.020Z,101850.91
2023-04-15T15:07:36.824Z,101836.44
2023-04-15T15:10:03.941Z,101844.53
2023-04-15T15:12:32.233Z,101857.94
2023-04-15T15:14:58.949Z,101849.53
2023-04-15T15:17:26.309Z,101872.56
2023-04-15T15:19:52.795Z,101862.00
2023-04-15T15:22:21.361Z,101870.06
2023-04-15T15:24:48.587Z,101846.16
2023-04-15T15:27:15.202Z,101877.56
2023-04-15T15:29:41.594Z,101884.50
2023-04-15T15:32:08.140Z,101880.09
2023-04-15T15:34:34.602Z,101882.28
2023-04-15T15:37:01.087Z,101881.25
2023-04-15T15:39:27.725Z,101882.25
2023-04-15T15:41:54.223Z,101885.91
2023-04-15T15:44:20.779Z,101899.22
2023-04-15T15:46:47.406Z,101897.78
2023-04-15T15:49:13.918Z,101897.19
2023-04-15T15:51:40.659Z,101898.19
2023-04-15T15:54:07.174Z,101895.47
2023-04-15T15:56:35.043Z,101898.88
2023-04-15T15:59:01.629Z,101902.56
2023-04-15T16:01:28.287Z,101913.44
2023-04-15T16:03:54.950Z,101912.00
2023-04-15T16:06:21.501Z,101911.88
2023-04-15T16:08:47.923Z,101910.31
2023-04-15T16:11:14.817Z,101928.78
2023-04-15T16:13:41.332Z,101929.00
2023-04-15T16:16:07.941Z,101932.84
2023-04-15T16:18:35.326Z,101937.38
2023-04-15T16:21:02.909Z,101941.94
2023-04-15T16:23:29.468Z,101937.28
2023-04-15T16:25:56.091Z,101934.63
2023-04-15T16:28:28.862Z,101938.41
2023-04-15T16:30:56.272Z,101941.91
2023-04-15T16:33:23.202Z,101944.50
2023-04-15T16:35:50.044Z,101952.22
2023-04-15T16:38:16.702Z,101955.75
2023-04-15T16:40:43.243Z,101955.88
2023-04-15T16:43:11.416Z,101965.56
2023-04-15T16:45:38.578Z,101966.72
2023-04-15T16:48:05.337Z,101965.25
2023-04-15T16:50:31.936Z,101972.25
2023-04-15T16:52:58.470Z,101973.09
2023-04-15T16:55:25.011Z,101969.47
2023-04-15T16:58:02.517Z,101980.69
2023-04-15T17:00:36.079Z,101985.06
2023-04-15T17:03:03.482Z,101991.25
2023-04-15T17:05:33.561Z,101985.75
2023-04-15T17:08:00.365Z,101985.84
2023-04-15T17:10:27.156Z,101987.63
2023-04-15T17:12:56.538Z,101984.28
2023-04-15T17:15:23.483Z,101989.81
2023-04-15T17:17:51.170Z,101981.84
2023-04-15T17:20:17.790Z,101997.28
2023-04-15T17:22:45.538Z,101991.31
2023-04-15T17:25:13.576Z,101993.88
2023-04-15T17:27:40.193Z,102004.34
2023-04-15T17:30:09.545Z,102009.72
2023-04-15T17:32:36.608Z,102006.25
2023-04-15T17:35:06.808Z,102008.97
2023-04-15T17:37:34.306Z,102005.53
2023-04-15T17:40:00.908Z,102008.25
2023-04-15T17:42:27.440Z,102019.66
2023-04-15T17:44:53.849Z,102024.03
2023-04-15T17:47:20.781Z,102019.63
2023-04-15T17:49:47.707Z,102019.50
2023-04-15T17:52:14.301Z,102025.63
2023-04-15T17:54:40.802Z,102036.06
2023-04-15T17:57:07.258Z,102036.06
2023-04-15T17:59:34.137Z,102038.97
2023-04-15T18:02:00.822Z,102039.91
2023-04-15T18:04:28.109Z,102036.44
2023-04-15T18:06:54.698Z,102047.59
2023-04-15T18:09:21.659Z,102045.03
2023-04-15T18:11:48.848Z,102045.03
2023-04-15T18:14:30.708Z,102050.50
2023-04-15T18:17:00.995Z,102056.69
2023-04-15T18:19:27.742Z,102050.66
2023-04-15T18:21:54.366Z,102055.88
2023-04-15T18:24:22.407Z,102057.66
2023-04-15T18:26:49.376Z,102059.56
2023-04-15T18:29:15.987Z,102063.94
2023-04-15T18:31:42.658Z,102065.59
2023-04-15T18:34:09.268Z,102068.31
2023-04-15T18:36:35.816Z,102071.97
2023-04-15T18:39:02.443Z,102066.16
2023-04-15T18:41:29.559Z,102076.59
2023-04-15T18:43:56.355Z,102074.09
2023-04-15T18:46:23.065Z,102077.78
2023-04-15T18:48:49.530Z,102087.38
2023-04-15T18:51:16.124Z,102079.53
2023-04-15T18:53:42.586Z,102090.06
2023-04-15T18:56:09.495Z,102087.59
2023-04-15T18:59:08.960Z,102099.66
2023-04-15T19:01:22.817Z,102101.63
2023-04-15T19:03:50.224Z,102113.03
2023-04-15T19:06:17.420Z,102107.19
2023-04-15T19:08:43.950Z,102103.78
2023-04-15T19:11:11.331Z,102115.19
2023-04-15T19:13:37.816Z,102105.72
2023-04-15T19:16:04.604Z,102112.63
2023-04-15T19:18:31.063Z,102122.19
2023-04-15T19:20:58.051Z,102115.22
2023-04-15T19:23:24.511Z,102110.00
2023-04-15T19:25:50.992Z,102114.19
2023-04-15T19:28:17.445Z,102112.31
2023-04-15T19:30:43.906Z,102117.72
2023-04-15T19:33:10.457Z,102121.25
2023-04-15T19:35:38.275Z,102132.63
2023-04-15T19:38:04.952Z,102128.34
2023-04-15T19:40:31.339Z,102118.94
2023-04-15T19:42:57.813Z,102127.72
2023-04-15T19:45:24.283Z,102130.22
2023-04-15T19:47:51.818Z,102132.06
2023-04-15T19:50:21.158Z,102135.50
2023-04-15T19:52:47.607Z,102148.56
2023-04-15T19:55:14.801Z,102143.34
2023-04-15T19:57:41.738Z,102142.53
2023-04-15T20:00:09.250Z,102145.22
2023-04-15T20:02:36.156Z,102146.06
2023-04-15T20:05:02.911Z,102147.81
2023-04-15T20:07:29.425Z,102153.91
2023-04-15T20:09:55.942Z,102150.44
2023-04-15T20:12:50.108Z,102142.59
2023-04-15T20:15:09.276Z,102150.34
2023-04-15T20:17:36.152Z,102143.47
2023-04-15T20:20:04.651Z,102144.38
2023-04-15T20:22:32.158Z,102146.97
2023-04-15T20:24:58.740Z,102149.59
2023-04-15T20:27:25.419Z,102151.34
2023-04-15T20:29:52.845Z,102148.75
2023-04-15T20:32:19.633Z,102158.31
2023-04-15T20:34:46.378Z,102160.97
2023-04-15T20:37:13.175Z,102164.47
2023-04-15T20:39:41.253Z,102150.53
2023-04-15T20:42:10.716Z,102143.53
2023-04-15T20:44:40.649Z,102150.44
2023-04-15T20:47:07.797Z,102150.44
2023-04-15T20:49:36.333Z,102149.59
2023-04-15T20:52:05.571Z,102163.47
2023-04-15T20:54:42.802Z,102156.50
2023-04-15T20:57:25.900Z,102169.59
2023-04-15T20:59:55.456Z,102160.97
2023-04-15T21:02:42.195Z,102161.88
2023-04-15T21:05:29.112Z,102169.75
2023-04-15T21:08:00.859Z,102162.78
2023-04-15T21:10:35.285Z,102171.50
2023-04-15T21:13:07.784Z,102171.63
2023-04-15T21:15:41.459Z,102175.00
2023-04-15T21:18:17.786Z,102180.22
2023-04-15T21:21:04.549Z,102177.63
2023-04-15T21:23:39.274Z,102182.81
2023-04-15T21:26:10.886Z,102175.91
2023-04-15T21:28:40.437Z,102178.63
2023-04-15T21:31:08.761Z,102176.03
2023-04-15T21:33:41.256Z,102182.16
2023-04-15T21:36:07.836Z,102185.59
2023-04-15T21:38:37.193Z,102181.47
2023-04-15T21:41:09.439Z,102189.31
2023-04-15T21:43:37.077Z,102179.81
2023-04-15T21:46:23.006Z,102184.22
2023-04-15T21:48:54.268Z,102180.00
2023-04-15T21:51:23.332Z,102181.78
2023-04-15T21:53:52.486Z,102187.81
2023-04-15T21:56:21.545Z,102187.00
2023-04-15T21:58:50.113Z,102201.75
2023-04-15T22:01:17.474Z,102195.59
2023-04-15T22:03:44.998Z,102198.22
2023-04-15T22:06:13.638Z,102204.31
2023-04-15T22:08:57.001Z,102210.34
2023-04-15T22:11:46.106Z,102210.28
2023-04-15T22:14:20.272Z,102220.78
2023-04-15T22:16:54.600Z,102214.69
2023-04-15T22:19:31.290Z,102214.63
2023-04-15T22:21:59.026Z,102209.44
2023-04-15T22:24:35.001Z,102211.09
2023-04-15T22:27:06.581Z,102205.03
2023-04-15T22:29:39.175Z,102206.72
2023-04-15T22:32:07.112Z,102214.59
2023-04-15T22:34:35.337Z,102213.72
2023-04-15T22:37:08.719Z,102220.66
2023-04-15T22:39:39.292Z,102215.47
2023-04-15T22:42:07.686Z,102224.97
2023-04-15T22:44:40.259Z,102216.25
2023-04-15T22:47:07.654Z,102221.44
2023-04-15T22:49:36.214Z,102223.13
2023-04-15T22:52:48.173Z,102223.94
2023-04-15T22:56:02.894Z,102223.94
2023-04-15T22:58:34.778Z,102233.47
2023-04-15T23:01:09.201Z,102227.41
2023-04-15T23:04:06.494Z,102236.91
2023-04-15T23:07:32.836Z,102238.63
2023-04-15T23:10:04.572Z,102239.50
2023-04-15T23:12:31.683Z,102246.41
2023-04-15T23:15:04.419Z,102240.34
2023-04-15T23:17:36.766Z,102248.19
2023-04-15T23:20:13.345Z,102243.97
2023-04-15T23:22:41.933Z,102245.69
2023-04-15T23:25:11.178Z,102250.03
2023-04-15T23:27:42.574Z,102248.28
2023-04-15T23:30:14.845Z,102256.13
2023-04-15T23:32:43.484Z,102249.19
2023-04-15T23:35:12.713Z,102251.88
2023-04-15T23:37:40.771Z,102257.09
2023-04-15T23:40:08.919Z,102257.09
2023-04-15T23:42:43.189Z,102253.72
2023-04-15T23:45:13.075Z,102260.63
2023-04-15T23:47:41.522Z,102268.44
2023-04-15T23:50:10.222Z,102264.16
2023-04-15T23:52:37.275Z,102265.03
2023-04-15T23:55:06.177Z,102267.63
2023-04-15T23:57:40.788Z,102261.53
